Página principal
METAR-TAF:

METAR-TAF

Aeroportos :

Aeroporto Internacional Harbin Taiping

Harbin, China

latitude: 45-45N, longitude: 126-46E, altura: 143 m

Observação actual do tempo

O boletim foi feito há 59 minutos, às 08:00 UTC
Vento 8 kt de noroeste
Temperatura 20°C
Humidade 35%
Pressão 1019 hPa
Visibilidade 10 km ou mais
sem nuvens abaixo de 1500 metros e sem cumulonimbus

METAR: ZYHB 240800Z 32004MPS CAVOK 20/04 Q1019 NOSIG

Hora: 16:59 (08:59 UTC)

Previsão

O boletim foi feito há 5 horas e 58 minutos, às 03:01 UTC
Previsão válida de 24 às 06 UTC a 25 às 06 UTC
Vento 8 kt de nor-noroeste
Visibilidade: 6000 m
Tornando-se
de 24 às 21 UTC a 24 às 23 UTC
Vento 10 kt de sul

TAF: ZYHB 240301Z 2406/2506 34004MPS 6000 NSC TX21/2406Z TN09/2421Z BECMG 2421/2423 19005MPS

Observações e previsões do tempo de mais de 4000 aeroportos (mensagens METAR e TAF).

As estações disponíveis são os pontos amarelos e vermelhos sobre o mapa.

Mova o rato sobre o mapa para ver o nome da estação.

Depois clique no ponto para visualizar as observações e previsões meteorológicas.

Para alterar o mapa : clique nos botões verdes com uma cruz preta para aumentar o zoom; no botão verde com uma pitada de zoom; ou nas setas verdes para mapas adjacentes.


METAR-TAF: